Time;durP1;ratioP1;P1;durP2;ratioP2;P2;SDS_P1;SDS_P2;PMS_P1;PMS_P2;Temp;Humidity;BMP_temperature;BMP_pressure;BME280_temperature;BME280_humidity;BME280_pressure;Samples;Min_cycle;Max_cycle;Signal;HPM_P1;HPM_P2
2023/06/01 00:02:39;;;;;;;5.88;4.78;;;22.50;74.60;;;;;;6344750;27;82568;-68
2023/06/01 00:05:41;;;;;;;6.78;5.03;;;22.50;74.60;;;;;;6338078;27;82287;-67
2023/06/01 00:08:43;;;;;;;6.57;4.93;;;22.60;74.70;;;;;;6341305;27;82552;-67
2023/06/01 00:11:45;;;;;;;5.55;4.65;;;22.50;74.70;;;;;;6350337;27;82307;-67
2023/06/01 00:14:48;;;;;;;5.95;5.18;;;22.50;74.70;;;;;;6358809;27;82176;-67
2023/06/01 00:17:51;;;;;;;8.60;5.07;;;22.50;74.70;;;;;;6352877;27;81094;-67
2023/06/01 00:20:53;;;;;;;6.97;5.10;;;22.60;74.80;;;;;;6360439;27;82659;-67
2023/06/01 00:23:55;;;;;;;5.22;4.50;;;22.50;74.70;;;;;;6355152;27;82345;-67
2023/06/01 00:26:57;;;;;;;5.13;4.47;;;22.50;74.70;;;;;;6347598;27;82371;-68
2023/06/01 00:30:00;;;;;;;6.30;4.88;;;22.50;74.70;;;;;;6357979;27;81539;-67
2023/06/01 00:33:02;;;;;;;6.38;5.15;;;22.60;74.90;;;;;;6360989;27;82334;-68
2023/06/01 00:36:04;;;;;;;5.55;4.95;;;22.50;74.70;;;;;;6357291;27;82588;-67
2023/06/01 00:39:06;;;;;;;7.00;4.65;;;22.50;74.70;;;;;;6361025;27;82397;-67
2023/06/01 00:42:08;;;;;;;6.57;4.93;;;22.60;74.80;;;;;;6359763;27;82664;-67
2023/06/01 00:45:12;;;;;;;7.50;4.90;;;22.50;75.60;;;;;;6359658;27;82310;-68
2023/06/01 00:48:15;;;;;;;6.28;5.20;;;22.50;74.80;;;;;;6359816;27;81697;-67
2023/06/01 00:51:17;;;;;;;5.32;4.70;;;22.50;74.90;;;;;;6353798;27;82274;-68
2023/06/01 00:54:19;;;;;;;6.63;4.85;;;22.50;74.90;;;;;;6354519;27;82297;-67
2023/06/01 00:57:26;;;;;;;6.55;4.75;;;22.50;74.90;;;;;;6358415;27;82466;-67
2023/06/01 01:00:31;;;;;;;6.18;5.20;;;22.50;74.90;;;;;;6357239;27;82495;-67
2023/06/01 01:03:34;;;;;;;5.78;4.50;;;22.50;74.90;;;;;;6360900;27;82307;-67
2023/06/01 01:06:56;;;;;;;7.43;4.97;;;22.50;75.00;;;;;;6360660;27;82454;-67
2023/06/01 01:10:03;;;;;;;6.57;4.85;;;22.50;74.90;;;;;;6352972;27;81265;-67
2023/06/01 01:13:11;;;;;;;5.78;5.10;;;22.50;74.90;;;;;;6354025;27;82709;-67
2023/06/01 01:16:24;;;;;;;6.57;4.90;;;22.50;75.00;;;;;;6359315;27;82332;-67
2023/06/01 01:19:40;;;;;;;7.78;4.90;;;22.50;75.00;;;;;;6348423;27;82293;-68
2023/06/01 01:23:08;;;;;;;6.32;5.20;;;22.50;75.10;;;;;;6341439;27;82086;-68
2023/06/01 01:26:20;;;;;;;6.20;5.60;;;22.50;75.10;;;;;;6350576;27;81191;-67
2023/06/01 01:29:27;;;;;;;6.25;5.65;;;22.50;75.20;;;;;;6350769;27;81217;-67
2023/06/01 01:32:29;;;;;;;6.55;5.60;;;22.50;75.20;;;;;;6363858;27;82406;-67
2023/06/01 01:35:33;;;;;;;6.35;5.70;;;22.50;75.20;;;;;;6365232;27;82399;-68
2023/06/01 01:38:36;;;;;;;7.30;5.78;;;22.50;75.30;;;;;;6362885;27;81172;-67
2023/06/01 01:41:37;;;;;;;6.38;5.47;;;22.50;75.30;;;;;;6355213;27;82091;-68
2023/06/01 01:44:41;;;;;;;6.25;5.40;;;22.50;75.40;;;;;;6328086;27;82408;-68
2023/06/01 01:47:49;;;;;;;6.60;5.35;;;22.50;75.40;;;;;;6325721;27;83067;-67
2023/06/01 01:50:56;;;;;;;7.28;5.18;;;22.50;75.40;;;;;;6338868;27;83386;-67
2023/06/01 01:54:00;;;;;;;7.30;5.20;;;22.50;75.40;;;;;;6337158;27;84057;-68
2023/06/01 01:57:03;;;;;;;6.45;5.32;;;22.50;75.40;;;;;;6328796;27;82953;-67
2023/06/01 02:00:08;;;;;;;8.95;5.65;;;22.50;75.40;;;;;;6327047;27;84862;-67
2023/06/01 02:03:14;;;;;;;6.05;5.45;;;22.50;75.40;;;;;;6319583;27;86786;-67
2023/06/01 02:06:16;;;;;;;8.05;6.10;;;22.50;75.40;;;;;;6320325;27;84030;-67
2023/06/01 02:09:18;;;;;;;6.32;5.25;;;22.50;75.40;;;;;;6334374;27;84763;-67
2023/06/01 02:12:20;;;;;;;6.13;4.93;;;22.50;75.40;;;;;;6328094;27;83005;-68
2023/06/01 02:15:23;;;;;;;5.93;5.25;;;22.50;75.50;;;;;;6336119;27;83232;-68
2023/06/01 02:18:25;;;;;;;7.20;5.72;;;22.50;75.50;;;;;;6332968;27;83977;-68
2023/06/01 02:21:28;;;;;;;6.03;5.43;;;22.50;75.50;;;;;;6335783;27;83899;-68
2023/06/01 02:24:30;;;;;;;7.82;5.22;;;22.50;75.50;;;;;;6327782;27;83925;-68
2023/06/01 02:27:32;;;;;;;6.70;5.22;;;22.50;75.50;;;;;;6335031;27;82981;-68
2023/06/01 02:30:35;;;;;;;7.15;5.00;;;22.50;75.50;;;;;;6334454;27;83676;-67
2023/06/01 02:33:39;;;;;;;7.45;5.30;;;22.50;75.40;;;;;;6329659;27;82889;-68
2023/06/01 02:36:40;;;;;;;6.45;5.50;;;22.50;75.40;;;;;;6329349;27;84017;-68
2023/06/01 02:39:42;;;;;;;5.18;4.60;;;22.50;75.40;;;;;;6331185;27;83873;-68
2023/06/01 02:42:44;;;;;;;7.28;5.20;;;22.50;75.40;;;;;;6362583;27;84121;-68
2023/06/01 02:45:48;;;;;;;6.85;5.60;;;22.50;75.40;;;;;;6355822;27;84415;-67
2023/06/01 02:48:50;;;;;;;6.78;5.18;;;22.50;75.40;;;;;;6360149;27;84160;-68
2023/06/01 02:51:52;;;;;;;6.97;5.35;;;22.50;75.30;;;;;;6351997;27;83259;-67
2023/06/01 02:54:54;;;;;;;5.90;5.25;;;22.40;75.30;;;;;;6361814;27;84082;-67
2023/06/01 02:57:56;;;;;;;6.15;5.13;;;22.50;75.40;;;;;;6352760;27;84126;-68
2023/06/01 03:00:59;;;;;;;7.60;5.40;;;22.50;75.40;;;;;;6347624;27;84908;-67
2023/06/01 03:04:03;;;;;;;6.45;5.47;;;22.40;75.30;;;;;;6341116;27;83940;-68
2023/06/01 03:07:06;;;;;;;6.85;5.38;;;22.40;75.40;;;;;;6342781;27;83206;-68
2023/06/01 03:10:08;;;;;;;6.15;5.13;;;22.40;75.40;;;;;;6343454;27;84269;-68
2023/06/01 03:13:10;;;;;;;8.05;6.05;;;22.50;75.40;;;;;;6339022;27;83960;-68
2023/06/01 03:16:14;;;;;;;7.72;5.75;;;22.50;75.40;;;;;;6360875;27;83951;-67
2023/06/01 03:19:16;;;;;;;7.53;5.70;;;22.40;75.40;;;;;;6361510;27;84321;-68
2023/06/01 03:22:17;;;;;;;6.55;5.05;;;22.40;75.30;;;;;;6361536;27;83291;-68
2023/06/01 03:25:19;;;;;;;5.85;5.25;;;22.40;75.30;;;;;;6344273;27;84035;-67
2023/06/01 03:28:21;;;;;;;7.82;5.95;;;22.40;75.30;;;;;;6350348;27;84014;-67
2023/06/01 03:31:25;;;;;;;7.53;5.85;;;22.40;75.30;;;;;;6357795;27;84913;-67
2023/06/01 03:34:27;;;;;;;6.65;5.35;;;22.40;75.40;;;;;;6349209;27;83960;-67
2023/06/01 03:37:29;;;;;;;6.78;5.30;;;22.40;75.40;;;;;;6350062;27;83919;-67
2023/06/01 03:40:31;;;;;;;7.18;5.43;;;22.40;75.30;;;;;;6360129;27;83965;-68
2023/06/01 03:43:33;;;;;;;6.82;5.22;;;22.40;75.30;;;;;;6352162;27;83396;-67
2023/06/01 03:46:36;;;;;;;6.53;5.32;;;22.40;75.30;;;;;;6353586;27;84017;-67
2023/06/01 03:49:38;;;;;;;7.57;5.60;;;22.30;75.20;;;;;;6345986;27;84191;-67
2023/06/01 03:52:40;;;;;;;6.00;5.40;;;22.40;75.40;;;;;;6347709;27;83284;-67
2023/06/01 03:55:42;;;;;;;7.03;5.55;;;22.40;75.30;;;;;;6347500;27;84027;-67
2023/06/01 03:58:44;;;;;;;7.93;6.22;;;22.40;75.30;;;;;;6359544;27;84061;-67
2023/06/01 04:01:48;;;;;;;7.10;6.07;;;22.40;75.40;;;;;;6335823;27;83836;-67
2023/06/01 04:04:51;;;;;;;6.78;5.50;;;22.30;75.30;;;;;;6336918;27;84258;-67
2023/06/01 04:07:53;;;;;;;7.38;5.70;;;22.40;75.40;;;;;;6358098;27;84002;-68
2023/06/01 04:10:55;;;;;;;6.55;5.90;;;22.40;75.40;;;;;;6358733;27;83958;-67
2023/06/01 04:13:57;;;;;;;6.10;5.50;;;22.40;75.40;;;;;;6353354;27;84053;-67
2023/06/01 04:17:01;;;;;;;5.88;5.38;;;22.40;75.50;;;;;;6360786;27;83999;-66
2023/06/01 04:20:06;;;;;;;7.10;5.72;;;22.40;75.50;;;;;;6351884;27;84005;-67
2023/06/01 04:23:07;;;;;;;6.75;5.30;;;22.40;75.50;;;;;;6349262;27;82192;-67
2023/06/01 04:26:09;;;;;;;6.72;5.63;;;22.40;75.50;;;;;;6340908;27;84446;-67
2023/06/01 04:29:12;;;;;;;6.28;5.55;;;22.40;75.60;;;;;;6347571;27;84366;-67
2023/06/01 04:32:21;;;;;;;7.28;5.72;;;22.40;75.70;;;;;;6356885;27;85157;-67
2023/06/01 04:35:22;;;;;;;6.57;5.88;;;22.40;75.70;;;;;;6351489;27;84102;-67
2023/06/01 04:38:25;;;;;;;5.78;5.13;;;22.40;75.90;;;;;;6347487;27;84304;-67
2023/06/01 04:41:28;;;;;;;6.53;5.40;;;22.30;75.80;;;;;;6343730;27;84050;-67
2023/06/01 04:44:32;;;;;;;7.50;6.07;;;22.40;75.90;;;;;;6331412;27;84019;-67
2023/06/01 04:47:37;;;;;;;6.95;5.82;;;22.40;75.90;;;;;;6324997;27;84043;-68
2023/06/01 04:50:40;;;;;;;7.03;5.30;;;22.40;76.00;;;;;;6318761;27;83833;-68
2023/06/01 04:53:43;;;;;;;6.43;5.53;;;22.40;76.10;;;;;;6323088;27;82207;-67
2023/06/01 04:56:45;;;;;;;6.55;5.30;;;22.40;76.10;;;;;;6333324;27;84130;-67
2023/06/01 04:59:46;;;;;;;6.63;5.43;;;22.50;76.20;;;;;;6328937;27;84078;-66
2023/06/01 05:02:50;;;;;;;6.10;5.50;;;22.40;76.10;;;;;;6331943;27;85518;-68
2023/06/01 05:05:52;;;;;;;5.53;5.03;;;22.50;76.20;;;;;;6335299;27;84078;-67
2023/06/01 05:08:54;;;;;;;6.28;5.30;;;22.50;76.40;;;;;;6328274;27;84277;-68
2023/06/01 05:11:56;;;;;;;7.32;5.63;;;22.50;76.40;;;;;;6334358;27;82805;-68
2023/06/01 05:14:58;;;;;;;8.15;5.07;;;22.50;76.40;;;;;;6339745;27;83984;-68
2023/06/01 05:18:01;;;;;;;5.65;5.05;;;22.50;76.20;;;;;;6334750;27;84093;-68
2023/06/01 05:21:03;;;;;;;7.15;5.57;;;22.50;76.10;;;;;;6326461;27;84304;-69
2023/06/01 05:24:06;;;;;;;7.78;5.07;;;22.50;76.00;;;;;;6335189;27;83301;-69
2023/06/01 05:27:08;;;;;;;6.45;5.28;;;22.50;76.00;;;;;;6325084;27;84106;-69
2023/06/01 05:30:11;;;;;;;6.53;5.00;;;22.50;76.10;;;;;;6335290;27;83344;-68
2023/06/01 05:33:14;;;;;;;6.60;5.30;;;22.50;76.20;;;;;;6338148;27;85018;-71
2023/06/01 05:36:16;;;;;;;7.53;5.05;;;22.50;76.60;;;;;;6327050;27;84065;-70
2023/06/01 05:39:18;;;;;;;5.85;4.90;;;22.50;76.90;;;;;;6317543;27;84266;-68
2023/06/01 05:42:20;;;;;;;6.22;4.90;;;22.50;76.70;;;;;;6321707;27;84042;-69
2023/06/01 05:45:22;;;;;;;6.00;4.85;;;22.50;76.90;;;;;;6327381;27;84015;-69
2023/06/01 05:48:25;;;;;;;6.32;4.75;;;22.60;76.90;;;;;;6329799;27;84067;-69
2023/06/01 05:51:27;;;;;;;6.20;4.50;;;22.50;76.80;;;;;;6321602;27;82861;-69
2023/06/01 05:54:30;;;;;;;5.45;4.80;;;22.50;76.70;;;;;;6321540;27;83300;-69
2023/06/01 05:57:32;;;;;;;6.20;4.70;;;22.60;76.60;;;;;;6330570;27;84136;-69
2023/06/01 06:00:35;;;;;;;6.93;4.50;;;22.60;76.20;;;;;;6330944;27;84331;-69
2023/06/01 06:03:39;;;;;;;5.18;4.45;;;22.60;75.80;;;;;;6329449;27;85238;-70
2023/06/01 06:06:41;;;;;;;5.05;4.45;;;22.60;75.50;;;;;;6320559;27;83968;-69
2023/06/01 06:09:43;;;;;;;5.90;4.57;;;22.60;75.40;;;;;;6330341;27;83101;-69
2023/06/01 06:12:45;;;;;;;4.93;4.10;;;22.50;75.50;;;;;;6324605;27;83354;-70
2023/06/01 06:15:47;;;;;;;5.15;4.53;;;22.50;75.20;;;;;;6327926;27;84029;-69
2023/06/01 06:18:51;;;;;;;4.50;4.10;;;22.50;75.20;;;;;;6336566;27;83997;-69
2023/06/01 06:21:53;;;;;;;6.47;4.70;;;22.50;75.20;;;;;;6322775;27;83959;-70
2023/06/01 06:24:55;;;;;;;5.35;4.20;;;22.60;75.20;;;;;;6328507;27;82594;-69
2023/06/01 06:27:57;;;;;;;6.78;4.70;;;22.50;75.10;;;;;;6321846;27;83295;-70
2023/06/01 06:30:59;;;;;;;5.32;4.47;;;22.50;75.10;;;;;;6332161;27;84157;-69
2023/06/01 06:34:02;;;;;;;8.68;4.80;;;22.50;75.20;;;;;;6319641;27;85359;-69
2023/06/01 06:37:06;;;;;;;5.78;4.70;;;22.50;75.20;;;;;;6325387;27;82713;-69
2023/06/01 06:40:09;;;;;;;5.40;4.50;;;22.50;75.20;;;;;;6337113;27;81963;-69
2023/06/01 06:43:13;;;;;;;6.05;4.50;;;22.50;75.30;;;;;;6357917;27;84017;-69
2023/06/01 06:46:15;;;;;;;6.53;4.60;;;22.50;75.30;;;;;;6358165;27;84023;-69
2023/06/01 06:49:19;;;;;;;6.55;4.63;;;22.50;75.20;;;;;;6355266;27;82862;-69
2023/06/01 06:52:21;;;;;;;5.57;4.43;;;22.50;75.10;;;;;;6347059;27;84037;-69
2023/06/01 06:55:23;;;;;;;6.28;4.60;;;22.50;75.00;;;;;;6360378;27;82195;-69
2023/06/01 06:58:26;;;;;;;4.88;4.28;;;22.50;75.00;;;;;;6357550;27;82784;-69
2023/06/01 07:01:28;;;;;;;7.07;4.90;;;22.50;75.00;;;;;;6357199;27;83854;-69
2023/06/01 07:04:31;;;;;;;5.85;4.30;;;22.60;75.10;;;;;;6359328;27;84925;-69
2023/06/01 07:07:34;;;;;;;6.72;4.55;;;22.60;75.20;;;;;;6357768;27;85154;-69
2023/06/01 07:10:36;;;;;;;6.70;4.60;;;22.50;75.20;;;;;;6346974;27;82964;-69
2023/06/01 07:13:38;;;;;;;6.13;4.50;;;22.60;75.20;;;;;;6347493;27;84330;-69
2023/06/01 07:16:40;;;;;;;5.20;4.30;;;22.60;75.40;;;;;;6360509;27;82922;-68
2023/06/01 07:19:44;;;;;;;5.20;4.60;;;22.60;75.40;;;;;;6354706;27;83991;-69
2023/06/01 07:22:46;;;;;;;4.53;4.03;;;22.60;75.40;;;;;;6347890;27;84260;-69
2023/06/01 07:25:48;;;;;;;7.97;4.88;;;22.60;75.50;;;;;;6351195;27;83354;-69
2023/06/01 07:28:52;;;;;;;5.60;4.60;;;22.50;75.40;;;;;;6353546;27;83938;-69
2023/06/01 07:31:55;;;;;;;5.55;4.35;;;22.60;75.60;;;;;;6360320;27;83975;-68
2023/06/01 07:34:59;;;;;;;6.80;4.40;;;22.60;75.70;;;;;;6346748;27;84936;-68
2023/06/01 07:38:03;;;;;;;5.00;3.95;;;22.60;75.60;;;;;;6355505;27;82954;-69
2023/06/01 07:41:05;;;;;;;6.75;4.43;;;22.60;75.50;;;;;;6344831;27;83706;-69
2023/06/01 07:44:07;;;;;;;6.75;4.93;;;22.60;75.40;;;;;;6338500;27;82902;-69
2023/06/01 07:47:09;;;;;;;5.28;4.20;;;22.60;75.50;;;;;;6349070;27;83945;-69
2023/06/01 07:50:13;;;;;;;5.90;4.13;;;22.60;75.40;;;;;;6352360;27;84285;-69
2023/06/01 07:53:15;;;;;;;4.88;4.07;;;22.60;75.40;;;;;;6359831;27;82639;-69
2023/06/01 07:56:18;;;;;;;5.28;4.15;;;22.60;75.40;;;;;;6356997;27;82113;-69
2023/06/01 07:59:21;;;;;;;4.93;4.10;;;22.60;75.40;;;;;;6355686;27;84716;-69
2023/06/01 08:02:23;;;;;;;6.22;4.05;;;22.60;75.40;;;;;;6360568;27;82849;-69
2023/06/01 08:05:26;;;;;;;5.10;4.10;;;22.60;75.40;;;;;;6350421;27;85074;-70
2023/06/01 08:08:29;;;;;;;6.35;4.07;;;22.60;75.50;;;;;;6351834;27;83225;-69
2023/06/01 08:11:31;;;;;;;5.03;4.30;;;22.60;75.60;;;;;;6342118;27;83707;-70
2023/06/01 08:14:33;;;;;;;5.13;3.97;;;22.60;75.80;;;;;;6344042;27;84337;-68
2023/06/01 08:17:35;;;;;;;7.55;4.40;;;22.60;75.90;;;;;;6350981;27;82805;-70
2023/06/01 08:20:39;;;;;;;6.05;4.30;;;22.60;76.00;;;;;;6351601;27;84115;-70
2023/06/01 08:23:41;;;;;;;10.70;4.15;;;22.60;76.20;;;;;;6346459;27;84378;-69
2023/06/01 08:26:43;;;;;;;5.97;4.32;;;22.60;76.30;;;;;;6343910;27;83688;-69
2023/06/01 08:29:46;;;;;;;5.55;3.95;;;22.60;76.30;;;;;;6338347;27;83971;-69
2023/06/01 08:32:49;;;;;;;6.20;4.15;;;22.60;76.40;;;;;;6336472;27;83955;-69
2023/06/01 08:35:53;;;;;;;4.70;4.20;;;22.60;76.50;;;;;;6353435;27;85061;-69
2023/06/01 08:38:56;;;;;;;5.82;3.90;;;22.60;76.60;;;;;;6353079;27;84098;-69
2023/06/01 08:42:08;;;;;;;6.00;4.18;;;22.60;76.60;;;;;;6355013;27;82958;-68
2023/06/01 08:45:11;;;;;;;5.28;4.40;;;22.60;76.60;;;;;;6354467;27;84073;-69
2023/06/01 08:48:16;;;;;;;6.15;4.15;;;22.60;76.70;;;;;;6337916;27;84584;-70
2023/06/01 08:51:20;;;;;;;5.28;4.13;;;22.60;76.70;;;;;;6349272;27;83998;-69
2023/06/01 08:54:22;;;;;;;6.47;4.20;;;22.60;76.90;;;;;;6345781;27;84128;-70
2023/06/01 08:57:24;;;;;;;5.80;4.20;;;22.60;76.90;;;;;;6346651;27;82194;-69
2023/06/01 09:00:28;;;;;;;5.60;3.97;;;22.60;77.10;;;;;;6342670;27;84319;-69
2023/06/01 09:03:30;;;;;;;5.55;4.50;;;22.60;77.10;;;;;;6341912;27;83965;-69
2023/06/01 09:06:33;;;;;;;5.78;4.22;;;22.60;77.20;;;;;;6343521;27;85013;-69
2023/06/01 09:09:35;;;;;;;4.30;3.90;;;22.60;77.20;;;;;;6339207;27;82943;-70
2023/06/01 09:12:40;;;;;;;6.95;3.90;;;22.60;77.20;;;;;;6352664;27;84041;-70
2023/06/01 09:15:52;;;;;;;5.78;4.18;;;22.60;77.20;;;;;;6337850;27;83990;-69
2023/06/01 09:18:54;;;;;;;4.32;3.80;;;22.60;77.30;;;;;;6359773;27;84343;-68
2023/06/01 09:21:59;;;;;;;5.25;3.90;;;22.60;77.40;;;;;;6349586;27;84292;-69
2023/06/01 09:25:01;;;;;;;5.15;3.72;;;22.60;77.40;;;;;;6356300;27;84173;-69
2023/06/01 09:28:04;;;;;;;5.38;4.25;;;22.60;77.50;;;;;;6353679;27;83293;-69
2023/06/01 09:31:06;;;;;;;5.60;4.30;;;22.60;77.50;;;;;;6342877;27;84292;-69
2023/06/01 09:34:11;;;;;;;7.47;4.57;;;22.60;77.40;;;;;;6336805;27;84232;-70
2023/06/01 09:37:15;;;;;;;5.22;3.97;;;22.60;78.40;;;;;;6346288;27;85154;-69
2023/06/01 09:40:20;;;;;;;5.28;3.90;;;22.60;77.40;;;;;;6346394;27;83958;-69
2023/06/01 09:43:23;;;;;;;4.63;4.10;;;22.60;77.50;;;;;;6331479;27;84132;-70
2023/06/01 09:46:25;;;;;;;5.28;4.13;;;22.60;78.40;;;;;;6329431;27;84094;-69
2023/06/01 09:49:28;;;;;;;4.90;4.05;;;22.60;77.60;;;;;;6334690;27;84071;-69
2023/06/01 09:52:32;;;;;;;6.53;4.03;;;22.60;77.60;;;;;;6330760;27;82667;-69
2023/06/01 09:55:34;;;;;;;5.03;4.20;;;22.60;77.60;;;;;;6343121;27;84374;-69
2023/06/01 09:58:39;;;;;;;4.40;3.97;;;22.60;77.70;;;;;;6323979;27;82301;-69
2023/06/01 10:01:43;;;;;;;4.28;3.88;;;22.60;77.70;;;;;;6324573;27;84738;-69
2023/06/01 10:04:49;;;;;;;5.68;4.43;;;22.60;77.70;;;;;;6326762;27;84038;-69
2023/06/01 10:07:52;;;;;;;4.40;4.00;;;22.60;77.80;;;;;;6327069;27;84878;-69
2023/06/01 10:10:55;;;;;;;5.00;4.25;;;22.60;77.80;;;;;;6314247;27;84054;-69
2023/06/01 10:13:58;;;;;;;4.40;4.00;;;22.60;77.80;;;;;;6339315;27;84254;-69
2023/06/01 10:17:01;;;;;;;4.90;3.95;;;22.60;77.90;;;;;;6335241;27;84047;-69
2023/06/01 10:20:04;;;;;;;4.32;3.92;;;22.60;77.90;;;;;;6316889;27;84074;-69
2023/06/01 10:23:08;;;;;;;6.18;4.10;;;22.70;78.00;;;;;;6329487;27;84343;-69
2023/06/01 10:26:15;;;;;;;5.25;4.05;;;22.60;78.00;;;;;;6333867;27;84114;-69
2023/06/01 10:29:19;;;;;;;5.35;4.20;;;22.60;77.90;;;;;;6330795;27;83508;-69
2023/06/01 10:32:47;;;;;;;4.65;4.07;;;22.60;78.00;;;;;;6327066;27;84352;-69
2023/06/01 10:35:58;;;;;;;4.55;3.83;;;22.60;78.00;;;;;;6336183;27;84111;-69
2023/06/01 10:39:26;;;;;;;5.55;4.30;;;22.60;78.10;;;;;;6331096;27;83877;-69
2023/06/01 10:42:49;;;;;;;4.43;4.03;;;22.60;78.10;;;;;;6326848;27;84029;-69
2023/06/01 10:45:51;;;;;;;4.25;3.85;;;22.60;78.10;;;;;;6329076;27;83772;-69
2023/06/01 10:48:55;;;;;;;4.97;4.22;;;22.60;78.10;;;;;;6334989;27;84356;-70
2023/06/01 10:52:25;;;;;;;4.47;4.07;;;22.70;78.30;;;;;;6329205;27;83881;-69
2023/06/01 10:55:29;;;;;;;4.78;4.10;;;22.60;78.30;;;;;;6325205;27;84258;-69
2023/06/01 10:58:31;;;;;;;6.20;4.35;;;22.70;78.60;;;;;;6329595;27;84338;-69
2023/06/01 11:01:34;;;;;;;5.60;4.20;;;22.60;78.40;;;;;;6328056;27;83518;-69
2023/06/01 11:04:36;;;;;;;4.85;4.10;;;22.60;78.30;;;;;;6338037;27;84022;-69
2023/06/01 11:07:39;;;;;;;4.50;4.10;;;22.70;78.40;;;;;;6320873;27;82617;-70
2023/06/01 11:11:00;;;;;;;4.60;4.20;;;22.60;78.40;;;;;;6326804;27;84960;-70
2023/06/01 11:14:11;;;;;;;4.90;4.03;;;22.70;78.40;;;;;;6335879;27;84027;-70
2023/06/01 11:17:32;;;;;;;4.32;3.92;;;22.70;78.40;;;;;;6335336;27;84328;-69
2023/06/01 11:20:40;;;;;;;4.30;3.83;;;22.70;78.50;;;;;;6336175;27;82321;-70
2023/06/01 11:23:42;;;;;;;5.45;4.10;;;22.70;78.40;;;;;;6336249;27;82850;-70
2023/06/01 11:26:47;;;;;;;4.03;3.63;;;22.70;78.40;;;;;;6331930;27;84049;-69
2023/06/01 11:29:49;;;;;;;4.55;4.15;;;22.70;78.50;;;;;;6325267;27;83999;-69
2023/06/01 11:32:55;;;;;;;4.85;3.92;;;22.70;78.60;;;;;;6328328;27;83247;-69
2023/06/01 11:36:00;;;;;;;4.93;4.05;;;22.70;78.60;;;;;;6311784;27;83988;-69
2023/06/01 11:39:02;;;;;;;4.55;4.15;;;22.70;78.60;;;;;;6332247;27;83070;-69
2023/06/01 11:42:08;;;;;;;4.25;3.83;;;22.70;78.60;;;;;;6355681;27;85114;-69
2023/06/01 11:45:17;;;;;;;5.88;4.00;;;22.60;78.50;;;;;;6336690;27;84047;-69
2023/06/01 11:48:19;;;;;;;4.03;3.70;;;22.70;78.60;;;;;;6351881;27;83925;-69
2023/06/01 11:51:21;;;;;;;3.97;3.58;;;22.70;78.60;;;;;;6360550;27;82884;-69
2023/06/01 11:54:28;;;;;;;4.25;3.85;;;22.70;78.60;;;;;;6354801;27;83288;-69
2023/06/01 11:57:31;;;;;;;6.03;4.22;;;22.70;78.60;;;;;;6353800;27;83890;-69
2023/06/01 12:00:33;;;;;;;4.30;3.90;;;22.70;78.60;;;;;;6332641;27;83992;-69
2023/06/01 12:03:46;;;;;;;4.18;3.78;;;22.70;78.60;;;;;;6349703;27;83280;-69
2023/06/01 12:06:49;;;;;;;4.32;3.70;;;22.70;78.60;;;;;;6354364;27;82856;-69
2023/06/01 12:09:53;;;;;;;5.05;4.07;;;22.70;78.70;;;;;;6357980;27;84534;-69
2023/06/01 12:12:57;;;;;;;4.47;4.00;;;22.70;78.70;;;;;;6351234;27;83663;-69
2023/06/01 12:15:59;;;;;;;4.85;4.10;;;22.70;78.80;;;;;;6351863;27;84215;-69
2023/06/01 12:19:10;;;;;;;4.63;4.22;;;22.70;78.60;;;;;;6344708;27;83979;-70
2023/06/01 12:22:12;;;;;;;4.40;3.92;;;22.70;78.60;;;;;;6355498;27;84183;-70
2023/06/01 12:25:16;;;;;;;4.65;4.15;;;22.70;78.60;;;;;;6339335;27;83988;-69
2023/06/01 12:28:21;;;;;;;4.80;4.30;;;22.70;78.60;;;;;;6346995;27;84019;-69
2023/06/01 12:31:23;;;;;;;4.57;4.18;;;22.70;78.60;;;;;;6343052;27;84067;-69
2023/06/01 12:34:25;;;;;;;5.82;3.97;;;22.70;78.60;;;;;;6354379;27;82513;-69
2023/06/01 12:37:27;;;;;;;4.90;4.35;;;22.70;78.60;;;;;;6342406;27;82883;-69
2023/06/01 12:40:29;;;;;;;5.03;4.28;;;22.70;78.70;;;;;;6328732;27;84176;-69
2023/06/01 12:43:33;;;;;;;5.30;4.07;;;22.70;78.70;;;;;;6320652;27;85382;-69
2023/06/01 12:46:35;;;;;;;4.40;4.00;;;22.70;78.70;;;;;;6322600;27;84245;-69
2023/06/01 12:49:37;;;;;;;4.95;4.13;;;22.70;78.60;;;;;;6313527;27;83969;-69
2023/06/01 12:52:42;;;;;;;4.43;4.03;;;22.70;78.60;;;;;;6318879;27;83423;-69
2023/06/01 12:55:44;;;;;;;4.70;4.30;;;22.70;78.60;;;;;;6316236;27;83908;-70
2023/06/01 12:58:47;;;;;;;4.75;4.35;;;22.70;78.60;;;;;;6327163;27;84129;-69
2023/06/01 13:01:49;;;;;;;5.00;4.03;;;22.70;78.60;;;;;;6314174;27;84058;-69
2023/06/01 13:04:53;;;;;;;5.65;4.82;;;22.80;78.70;;;;;;6332909;27;83211;-69
2023/06/01 13:07:55;;;;;;;4.50;4.10;;;22.70;78.60;;;;;;6323360;27;84185;-69
2023/06/01 13:10:57;;;;;;;4.53;4.13;;;22.70;78.60;;;;;;6325626;27;84053;-69
2023/06/01 13:14:00;;;;;;;4.30;3.90;;;22.70;78.60;;;;;;6316406;27;85131;-69
2023/06/01 13:17:03;;;;;;;4.28;3.88;;;22.70;78.60;;;;;;6333984;27;83973;-69
2023/06/01 13:20:07;;;;;;;4.72;4.20;;;22.70;78.60;;;;;;6314984;27;83982;-69
2023/06/01 13:23:09;;;;;;;4.40;4.00;;;22.80;78.60;;;;;;6326671;27;84508;-69
2023/06/01 13:26:11;;;;;;;5.85;4.45;;;22.80;78.60;;;;;;6324319;27;84154;-69
2023/06/01 13:29:15;;;;;;;4.82;4.30;;;22.70;78.60;;;;;;6325264;27;84015;-69
2023/06/01 13:32:16;;;;;;;4.78;4.25;;;22.70;78.60;;;;;;6327066;27;82969;-70
2023/06/01 13:35:19;;;;;;;4.47;3.97;;;22.80;78.60;;;;;;6326370;27;83274;-70
2023/06/01 13:38:22;;;;;;;4.35;3.95;;;22.70;78.60;;;;;;6325144;27;84031;-69
2023/06/01 13:41:24;;;;;;;4.53;4.13;;;22.80;78.60;;;;;;6351479;27;83005;-69
2023/06/01 13:44:28;;;;;;;5.13;4.40;;;22.70;78.60;;;;;;6357592;27;84973;-70
2023/06/01 13:47:30;;;;;;;4.40;3.95;;;22.80;78.60;;;;;;6359671;27;83252;-70
2023/06/01 13:50:32;;;;;;;4.28;3.58;;;22.70;78.50;;;;;;6345832;27;83773;-70
2023/06/01 13:53:34;;;;;;;4.68;4.18;;;22.80;78.60;;;;;;6354199;27;82889;-69
2023/06/01 13:56:36;;;;;;;5.50;4.60;;;22.80;78.60;;;;;;6362076;27;84147;-69
2023/06/01 13:59:40;;;;;;;4.47;4.07;;;22.70;78.60;;;;;;6364150;27;82050;-69
2023/06/01 14:02:42;;;;;;;4.82;4.32;;;22.70;78.60;;;;;;6363625;27;84110;-70
2023/06/01 14:05:44;;;;;;;4.05;3.72;;;22.70;78.60;;;;;;6365285;27;82204;-70
2023/06/01 14:08:46;;;;;;;4.60;4.20;;;22.70;78.60;;;;;;6353766;27;83955;-70
2023/06/01 14:11:47;;;;;;;4.30;3.90;;;22.80;78.60;;;;;;6354063;27;84169;-70
2023/06/01 14:14:51;;;;;;;4.80;4.22;;;22.80;78.60;;;;;;6347574;27;85004;-69
2023/06/01 14:17:53;;;;;;;5.55;4.60;;;22.80;78.60;;;;;;6361049;27;83990;-69
2023/06/01 14:20:55;;;;;;;4.30;3.90;;;22.80;78.60;;;;;;6351671;27;83981;-70
2023/06/01 14:23:58;;;;;;;4.50;4.10;;;22.80;78.60;;;;;;6338631;27;83927;-69
2023/06/01 14:27:00;;;;;;;4.72;4.10;;;22.80;78.60;;;;;;6359576;27;84058;-70
2023/06/01 14:30:04;;;;;;;4.40;4.00;;;22.80;78.70;;;;;;6349297;27;84108;-69
2023/06/01 14:33:06;;;;;;;4.88;3.78;;;22.80;78.70;;;;;;6344288;27;84062;-70
2023/06/01 14:36:09;;;;;;;4.43;4.03;;;22.70;78.60;;;;;;6345145;27;83330;-70
2023/06/01 14:39:11;;;;;;;4.20;3.80;;;22.80;78.60;;;;;;6354310;27;84342;-69
2023/06/01 14:42:13;;;;;;;6.05;4.72;;;22.80;78.60;;;;;;6360490;27;84169;-69
2023/06/01 14:45:18;;;;;;;4.95;3.97;;;22.80;78.60;;;;;;6357649;27;84991;-69
2023/06/01 14:48:20;;;;;;;4.65;3.90;;;22.80;78.60;;;;;;6343979;27;84017;-70
2023/06/01 14:51:22;;;;;;;4.47;4.07;;;22.80;78.60;;;;;;6338815;27;83770;-69
2023/06/01 14:54:24;;;;;;;4.50;4.10;;;22.80;78.60;;;;;;6342568;27;84030;-69
2023/06/01 14:57:26;;;;;;;4.50;4.10;;;22.80;78.60;;;;;;6346395;27;84273;-70
2023/06/01 15:00:30;;;;;;;4.18;3.78;;;22.80;79.60;;;;;;6362464;27;82930;-69
2023/06/01 15:03:33;;;;;;;4.22;3.63;;;22.80;78.60;;;;;;6362413;27;84361;-70
2023/06/01 15:06:36;;;;;;;4.63;4.20;;;22.80;78.60;;;;;;6360794;27;83018;-69
2023/06/01 15:09:38;;;;;;;4.65;4.13;;;22.80;78.60;;;;;;6359384;27;84194;-70
2023/06/01 15:12:40;;;;;;;4.40;4.00;;;22.80;78.60;;;;;;6342771;27;84414;-70
2023/06/01 15:15:43;;;;;;;4.30;3.90;;;22.80;78.60;;;;;;6338978;27;85047;-69
2023/06/01 15:18:45;;;;;;;5.05;4.55;;;22.80;78.60;;;;;;6357425;27;84346;-70
2023/06/01 15:21:47;;;;;;;4.57;4.15;;;22.80;78.60;;;;;;6353368;27;84035;-69
2023/06/01 15:24:49;;;;;;;5.10;4.60;;;22.80;78.60;;;;;;6351032;27;84042;-69
2023/06/01 15:27:51;;;;;;;4.35;3.95;;;22.80;78.60;;;;;;6356723;27;84013;-70
2023/06/01 15:30:55;;;;;;;4.90;4.30;;;22.80;78.60;;;;;;6360529;27;82929;-69
2023/06/01 15:33:56;;;;;;;4.82;4.40;;;22.80;78.60;;;;;;6342161;27;83019;-70
2023/06/01 15:36:58;;;;;;;4.55;4.15;;;22.80;78.60;;;;;;6350028;27;83334;-69
2023/06/01 15:40:00;;;;;;;4.60;4.20;;;22.80;78.60;;;;;;6355747;27;83946;-69
2023/06/01 15:43:02;;;;;;;4.40;4.00;;;22.80;78.70;;;;;;6352475;27;84032;-69
2023/06/01 15:46:06;;;;;;;5.10;4.07;;;22.80;78.70;;;;;;6355705;27;85444;-69
2023/06/01 15:49:08;;;;;;;4.57;4.18;;;22.80;78.60;;;;;;6359154;27;84088;-69
2023/06/01 15:52:10;;;;;;;4.35;3.95;;;22.90;78.70;;;;;;6343073;27;84031;-69
2023/06/01 15:55:12;;;;;;;5.25;4.20;;;22.80;78.70;;;;;;6337492;27;83805;-69
2023/06/01 15:58:14;;;;;;;4.38;3.78;;;22.80;78.60;;;;;;6349014;27;82920;-69